Airfield :
LOGIN :

Register | Disclaimer

   EN    FR    IT 

 










Legend :    VFR   Marginal VFR   IFR   Intensive IFR   Very Intensive IFR
Visi :
Ceiling :
>= 8 km
>= 3000ft
5 to 8 km
1000 to 3000 ft
1500m to 5 km
500 to 1000 ft
800 to 1500m
200 to 500 ft
< 800m
< 200 ft
Symbols :   Thunderstorms  Fog  Heavy snow  Heavy precipitations  Wind > 20 kt
SIGMETs :     Misc.  Thunderstorms  Icing  Turbulence  Mountain Waves  Volcanic Ashes






- Airport Elevation : 138 ft
- IATA code : BIO


LEBB - Bilbao

CURRENT METAR :
  • 240530Z VRB02KT 9999 FEW060 05/05 Q1023 NOSIG

EXPIRED METARs :
  • 240500Z VRB02KT 9999 FEW060 06/05 Q1023 NOSIG
  • 240430Z 08002KT 9999 FEW040 SCT058 06/06 Q1023 NOSIG
  • 240400Z 09004KT 070V140 9999 FEW040 BKN055 07/06 Q1023 NOSIG
  • 240330Z 10002KT 9999 SCT040 BKN055 06/06 Q1024 NOSIG
  • 240300Z VRB01KT 9999 SCT038 BKN058 06/06 Q1024 NOSIG
  • 240230Z AUTO VRB01KT 9999 BKN039 BKN050 BKN065 06/05 Q1024
  • 240200Z AUTO VRB02KT 9999 SCT041 BKN055 OVC066 06/05 Q1024
  • 240130Z AUTO 07002KT 9999 FEW039 SCT045 BKN060 06/05 Q1024
  • 240100Z AUTO VRB02KT 9999 SCT039 BKN056 OVC065 06/05 Q1024

TAF TAF LEBB
Valid from the 24 at 06:00 until the 25 at 06:00 UTC


240500Z 2406/2506 31009KT 9999 FEW030 BKN050 TX14/2414Z TN06/2406Z
PROB30
TEMPO 2500/2506 3000 DZ BKN010



MET'MAP, your aeronautical weather chart ! - Copyright ORBIFLY December 2007 - Disclaimer

ORBIFLY MET'MAP TEAM :

Programming & Development : Alexandra Zaïnal
Original concept : Baudouin d'Aumeries
Technical & hardware support : Manuel Goepfert
Assistance : Marc-Olivier Méhu




SOURCES & CREDITS :

   NOAA